CST,Max TemperatureF,Mean TemperatureF,Min TemperatureF,Max Dew PointF,MeanDew PointF,Min DewpointF,Max Humidity, Mean Humidity, Min Humidity, Max Sea Level PressureIn, Mean Sea Level PressureIn, Min Sea Level PressureIn, Max VisibilityMiles, Mean VisibilityMiles, Min VisibilityMiles, Max Wind SpeedMPH, Mean Wind SpeedMPH, Max Gust SpeedMPH,PrecipitationIn, CloudCover, Events, WindDirDegrees
2012-11-1,64,47,30,34,27,19,93,55,18,30.06,30.00,29.96,10,10,2,12,2,16,0.00,0,,310
2012-11-2,75,55,35,50,41,32,93,67,36,30.04,30.00,29.95,10,10,10,14,2,21,0.00,1,,270
2012-11-3,80,61,42,54,47,39,93,67,34,30.14,30.05,29.99,10,10,4,17,2,24,0.00,0,,242
2012-11-4,64,54,42,55,46,36,88,70,45,30.12,30.06,30.00,10,10,8,13,5,17,0.00,2,,321
2012-11-5,60,46,33,45,37,30,93,70,36,30.13,30.05,29.97,10,10,5,10,2,,0.39,2,,36
2012-11-6,51,48,46,45,44,43,93,86,71,30.01,29.97,29.94,10,9,3,10,5,,0.26,7,,23
2012-11-7,53,44,35,45,39,34,93,78,54,30.11,30.00,29.92,10,9,0,15,5,23,0.00,4,,302
2012-11-8,60,46,32,41,35,30,100,76,42,30.25,30.19,30.11,10,8,2,9,2,,0.00,0,,328
2012-11-9,66,48,30,41,35,27,93,74,30,30.34,30.25,30.21,10,8,0,4,0,,0.00,1,,222
2012-11-10,69,50,32,45,38,28,93,71,27,30.37,30.30,30.24,10,10,7,9,1,,0.00,0,,197
2012-11-11,69,51,33,48,43,30,93,66,43,30.38,30.28,30.22,10,10,5,14,3,23,0.00,1,,142
2012-11-12,64,52,37,59,49,34,94,79,59,30.39,30.26,30.18,10,9,2,12,7,18,0.66,5,,309
2012-11-13,55,44,33,34,27,25,93,57,31,30.43,30.36,30.31,10,10,10,16,8,23,0.00,0,,11
2012-11-14,55,42,30,39,33,27,93,67,47,30.38,30.31,30.26,10,9,1,15,4,18,0.00,4,,54
2012-11-15,60,48,37,41,38,34,93,71,42,30.32,30.27,30.22,10,10,9,8,3,,0.00,2,,77
2012-11-16,64,47,30,39,33,28,93,69,32,30.35,30.29,30.25,10,10,10,6,1,,0.00,0,,51
2012-11-17,62,45,28,37,31,27,93,66,27,30.46,30.38,30.33,10,10,10,14,2,21,0.00,0,,71
2012-11-18,62,45,28,39,34,27,93,70,39,30.43,30.36,30.30,10,10,10,17,2,23,0.00,1,,66
2012-11-19,66,48,30,43,36,28,93,72,37,30.35,30.27,30.19,10,10,9,5,0,,0.00,1,,136
2012-11-20,68,52,35,45,40,34,93,71,35,30.22,30.15,30.09,10,10,10,7,2,,0.00,1,,302
2012-11-21,71,56,41,46,43,37,93,69,38,30.20,30.16,30.12,10,10,10,8,1,,0.00,2,,337
2012-11-22,69,52,35,46,40,34,93,72,33,30.27,30.20,30.17,10,9,2,8,1,,0.00,0,,196
2012-11-23,66,50,35,50,41,30,93,75,49,30.20,30.16,30.11,10,10,6,14,3,18,0.00,1,,292
2012-11-24,48,37,26,30,23,18,80,56,32,30.27,30.20,30.17,10,10,10,14,6,18,0.00,0,,329
2012-11-25,57,39,21,27,22,19,93,60,23,30.22,30.15,30.08,10,10,10,7,1,,0.00,0,,210
2012-11-26,64,45,26,43,33,21,93,63,34,30.23,30.15,30.11,10,10,10,8,1,,0.00,3,,204
2012-11-27,57,50,42,52,44,36,94,79,59,30.30,30.19,30.10,10,9,1,13,5,17,0.00,8,Thunderstorm,342
2012-11-28,57,44,30,36,29,25,86,64,31,30.44,30.37,30.30,10,10,10,12,6,,0.00,2,,360
2012-11-29,60,42,24,34,28,21,93,68,25,30.45,30.37,30.31,10,10,10,7,1,,0.00,0,,121
2012-11-30,62,46,30,48,39,27,93,79,55,30.37,30.31,30.25,10,9,1,6,0,,0.00,3,,130